Time;durP1;ratioP1;P1;durP2;ratioP2;P2;SDS_P1;SDS_P2;PMS_P1;PMS_P2;Temp;Humidity;BMP_temperature;BMP_pressure;BME280_temperature;BME280_humidity;BME280_pressure;Samples;Min_cycle;Max_cycle;Signal;HPM_P1;HPM_P2
2021/08/05 00:02:00;;;;;;;10.40;6.58;;;;;;;17.14;63.96;100414.12;1825806;76;25736;-68
2021/08/05 00:04:27;;;;;;;14.38;7.62;;;;;;;17.13;64.04;100416.94;1834972;76;27312;-68
2021/08/05 00:06:52;;;;;;;12.53;7.55;;;;;;;17.08;64.10;100413.22;1832287;76;26426;-68
2021/08/05 00:09:20;;;;;;;16.75;7.75;;;;;;;17.07;64.16;100415.55;1823877;76;25683;-68
2021/08/05 00:11:50;;;;;;;10.72;7.58;;;;;;;17.03;64.25;100415.40;1823639;76;26371;-68
2021/08/05 00:14:16;;;;;;;14.05;7.22;;;;;;;16.99;64.28;100413.03;1832987;76;25729;-69
2021/08/05 00:16:42;;;;;;;15.05;8.18;;;;;;;16.94;64.37;100414.72;1827749;76;28145;-68
2021/08/05 00:19:08;;;;;;;12.82;7.67;;;;;;;16.93;64.49;100418.90;1836424;76;25939;-68
2021/08/05 00:21:36;;;;;;;13.55;7.95;;;;;;;16.91;64.59;100419.50;1833555;76;26171;-68
2021/08/05 00:24:02;;;;;;;12.35;6.95;;;;;;;16.88;64.63;100420.59;1835557;76;26289;-68
2021/08/05 00:26:28;;;;;;;10.58;7.87;;;;;;;16.84;64.76;100416.37;1831780;76;26372;-68
2021/08/05 00:28:56;;;;;;;13.10;7.70;;;;;;;16.84;64.89;100415.02;1818209;76;25829;-68
2021/08/05 00:31:22;;;;;;;12.98;7.42;;;;;;;16.84;64.97;100422.65;1819883;76;26395;-68
2021/08/05 00:33:49;;;;;;;10.75;7.67;;;;;;;16.83;65.01;100419.56;1833370;76;26499;-69
2021/08/05 00:36:16;;;;;;;24.90;7.65;;;;;;;16.81;65.13;100417.95;1835738;76;26541;-68
2021/08/05 00:38:42;;;;;;;19.52;6.80;;;;;;;16.80;65.18;100416.22;1826499;76;25807;-68
2021/08/05 00:41:08;;;;;;;16.52;7.47;;;;;;;16.79;65.26;100413.14;1816942;76;27388;-68
2021/08/05 00:43:37;;;;;;;11.50;7.30;;;;;;;16.77;65.31;100413.25;1828472;76;25963;-68
2021/08/05 00:46:03;;;;;;;14.33;7.62;;;;;;;16.75;65.37;100411.62;1823072;76;25669;-69
2021/08/05 00:48:31;;;;;;;11.48;7.22;;;;;;;16.69;65.43;100408.02;1818389;76;25806;-68
2021/08/05 00:50:58;;;;;;;11.25;7.17;;;;;;;16.62;65.50;100406.69;1809021;76;25680;-68
2021/08/05 00:53:27;;;;;;;12.05;7.60;;;;;;;16.59;65.71;100401.02;1829633;76;27406;-69
2021/08/05 00:55:55;;;;;;;14.50;7.75;;;;;;;16.57;65.77;100402.97;1825634;76;25805;-68
2021/08/05 00:58:24;;;;;;;13.38;7.78;;;;;;;16.55;65.86;100400.86;1826645;77;25857;-68
2021/08/05 01:00:55;;;;;;;10.50;7.17;;;;;;;16.52;65.97;100399.23;1823896;76;25956;-68
2021/08/05 01:03:33;;;;;;;13.72;7.87;;;;;;;16.51;66.08;100394.80;1810381;76;25763;-68
2021/08/05 01:06:38;;;;;;;11.43;7.45;;;;;;;16.49;66.09;100392.69;1816722;76;27432;-68
2021/08/05 01:09:21;;;;;;;9.65;7.15;;;;;;;16.48;66.21;100392.31;1825665;76;25853;-67
2021/08/05 01:11:58;;;;;;;10.23;6.50;;;;;;;16.46;66.26;100390.20;1774286;79;25680;-67
2021/08/05 01:14:29;;;;;;;10.25;6.97;;;;;;;16.43;66.34;100397.19;1768283;79;25803;-67
2021/08/05 01:16:56;;;;;;;10.72;6.67;;;;;;;16.39;66.40;100390.27;1827878;76;25705;-67
2021/08/05 01:19:42;;;;;;;13.58;6.87;;;;;;;16.37;66.51;100394.92;1828259;76;27352;-67
2021/08/05 01:22:53;;;;;;;10.10;6.72;;;;;;;16.36;66.58;100390.48;1774913;79;25708;-67
2021/08/05 01:25:30;;;;;;;18.23;6.80;;;;;;;16.34;66.63;100385.67;1751478;80;25731;-67
2021/08/05 01:28:00;;;;;;;10.60;6.97;;;;;;;16.28;66.73;100387.47;1772423;79;25837;-67
2021/08/05 01:30:27;;;;;;;12.85;7.47;;;;;;;16.20;66.81;100389.36;1776664;78;25752;-67
2021/08/05 01:32:56;;;;;;;9.70;7.33;;;;;;;16.18;66.91;100387.73;1781893;78;28113;-67
2021/08/05 01:35:24;;;;;;;14.78;7.80;;;;;;;16.14;66.94;100385.73;1780882;78;25795;-67
2021/08/05 01:37:51;;;;;;;8.33;6.15;;;;;;;16.09;67.10;100382.48;1775221;78;25813;-66
2021/08/05 01:40:20;;;;;;;9.95;6.70;;;;;;;16.08;67.16;100382.59;1792029;78;26292;-68
2021/08/05 01:42:47;;;;;;;8.45;6.47;;;;;;;16.05;67.25;100385.03;1836616;76;25742;-67
2021/08/05 01:45:16;;;;;;;6.83;6.05;;;;;;;16.04;67.31;100386.48;1837239;76;27397;-67
2021/08/05 01:47:45;;;;;;;10.90;6.72;;;;;;;16.02;67.40;100382.54;1753242;79;25968;-67
2021/08/05 01:50:16;;;;;;;15.90;6.90;;;;;;;16.02;67.51;100383.03;1834969;76;25910;-67
2021/08/05 01:52:43;;;;;;;9.70;7.10;;;;;;;16.01;67.55;100376.75;1779721;78;25733;-67
2021/08/05 01:55:12;;;;;;;11.65;6.45;;;;;;;15.99;67.60;100388.65;1830614;76;26439;-67
2021/08/05 01:57:38;;;;;;;8.38;6.62;;;;;;;15.97;67.59;100377.94;1832486;76;28414;-67
2021/08/05 02:00:09;;;;;;;15.95;7.28;;;;;;;15.94;67.68;100380.86;1831119;76;25777;-68
2021/08/05 02:02:37;;;;;;;11.17;7.47;;;;;;;15.91;67.72;100381.08;1834187;76;25870;-67
2021/08/05 02:05:24;;;;;;;7.90;6.53;;;;;;;15.90;67.80;100369.39;1834880;76;25762;-67
2021/08/05 02:08:02;;;;;;;9.83;6.87;;;;;;;15.86;67.79;100380.04;1829172;76;25674;-67
2021/08/05 02:10:40;;;;;;;18.32;7.58;;;;;;;15.81;67.86;100378.14;1791261;78;27416;-67
2021/08/05 02:13:12;;;;;;;12.93;7.20;;;;;;;15.78;67.93;100378.84;1844451;75;26241;-68
2021/08/05 02:15:51;;;;;;;13.62;7.72;;;;;;;15.76;67.99;100379.44;1826712;76;25722;-67
2021/08/05 02:18:20;;;;;;;8.23;7.08;;;;;;;15.73;68.06;100376.45;1793827;78;25820;-68
2021/08/05 02:20:47;;;;;;;11.28;8.13;;;;;;;15.71;68.07;100372.13;1824524;76;25668;-67
2021/08/05 02:23:18;;;;;;;14.87;7.28;;;;;;;15.68;68.15;100373.20;1824336;76;27999;-67
2021/08/05 02:25:50;;;;;;;13.30;8.03;;;;;;;15.65;68.18;100371.20;1825666;76;36067;-67
2021/08/05 02:28:19;;;;;;;13.15;7.83;;;;;;;15.62;68.30;100372.27;1790458;78;25737;-67
2021/08/05 02:30:49;;;;;;;14.93;7.60;;;;;;;15.59;68.33;100377.92;1843098;75;25773;-67
2021/08/05 02:33:16;;;;;;;11.45;8.18;;;;;;;15.55;68.38;100375.87;1791715;78;25891;-67
2021/08/05 02:35:47;;;;;;;18.55;8.73;;;;;;;15.54;68.41;100377.34;1806397;76;27354;-67
2021/08/05 02:38:15;;;;;;;;;;;;;;;15.51;68.51;100366.73;1816100;76;26889;-66
2021/08/05 02:40:46;;;;;;;11.15;8.00;;;;;;;15.49;68.51;100372.73;1762091;79;26535;-66
2021/08/05 02:43:14;;;;;;;9.70;8.00;;;;;;;15.41;68.53;100371.03;1772835;78;26387;-66
2021/08/05 02:45:43;;;;;;;16.48;9.23;;;;;;;15.37;68.62;100363.63;1835191;76;25846;-66
2021/08/05 02:48:16;;;;;;;11.30;8.30;;;;;;;15.36;68.68;100371.83;1792235;78;27389;-66
2021/08/05 02:50:48;;;;;;;12.05;9.30;;;;;;;15.32;68.73;100367.61;1755316;79;25869;-66
2021/08/05 02:53:19;;;;;;;15.40;9.60;;;;;;;15.30;68.80;100368.19;1830721;76;25775;-67
2021/08/05 02:55:46;;;;;;;19.20;10.00;;;;;;;15.26;68.88;100368.39;1781305;78;25804;-67
2021/08/05 02:58:16;;;;;;;17.17;9.08;;;;;;;15.25;68.95;100361.27;1824411;76;25689;-67
2021/08/05 03:00:44;;;;;;;13.83;9.68;;;;;;;15.24;68.99;100366.28;1831205;76;27372;-67
2021/08/05 03:03:12;;;;;;;12.10;9.33;;;;;;;15.25;69.07;100363.09;1828156;76;25730;-68
2021/08/05 03:05:40;;;;;;;13.98;9.50;;;;;;;15.24;69.13;100362.23;1790371;78;25742;-67
2021/08/05 03:08:08;;;;;;;12.95;9.53;;;;;;;15.23;69.11;100363.69;1832242;76;25762;-67
2021/08/05 03:10:34;;;;;;;16.02;9.83;;;;;;;15.22;69.24;100363.30;1831237;76;25667;-67
2021/08/05 03:13:01;;;;;;;14.07;10.13;;;;;;;15.22;69.35;100358.77;1834613;76;27531;-67
2021/08/05 03:15:28;;;;;;;18.75;9.88;;;;;;;15.20;69.36;100360.70;1831590;76;25821;-67
2021/08/05 03:17:55;;;;;;;14.83;9.65;;;;;;;15.21;69.42;100365.14;1791716;78;26477;-67
2021/08/05 03:20:21;;;;;;;13.90;9.55;;;;;;;15.19;69.43;100365.73;1826089;76;26419;-67
2021/08/05 03:22:49;;;;;;;13.13;10.13;;;;;;;15.16;69.55;100360.53;1843020;76;25769;-67
2021/08/05 03:25:15;;;;;;;16.23;9.83;;;;;;;15.19;69.68;100368.91;1834836;76;27355;-66
2021/08/05 03:27:41;;;;;;;12.70;9.88;;;;;;;15.20;69.69;100364.76;1834156;76;25754;-67
2021/08/05 03:30:09;;;;;;;11.25;9.15;;;;;;;15.21;69.71;100362.44;1788872;78;25915;-67
2021/08/05 03:32:35;;;;;;;14.18;9.40;;;;;;;15.22;69.79;100358.77;1829461;76;25802;-67
2021/08/05 03:35:03;;;;;;;12.95;9.83;;;;;;;15.24;69.88;100363.59;1782636;78;25708;-66
2021/08/05 03:37:29;;;;;;;14.10;9.95;;;;;;;15.25;69.86;100358.56;1838633;76;27505;-66
2021/08/05 03:39:58;;;;;;;13.40;10.55;;;;;;;15.25;69.93;100353.16;1780140;78;25951;-67
2021/08/05 03:42:25;;;;;;;20.82;10.70;;;;;;;15.26;70.02;100353.55;1778721;79;25815;-67
2021/08/05 03:44:52;;;;;;;17.12;10.30;;;;;;;15.29;70.07;100351.12;1798464;78;26252;-67
2021/08/05 03:47:18;;;;;;;15.95;10.60;;;;;;;15.33;70.14;100351.78;1777947;78;25655;-66
2021/08/05 03:49:47;;;;;;;15.00;9.70;;;;;;;15.37;70.10;100347.91;1796588;78;28001;-67
2021/08/05 03:52:15;;;;;;;11.88;9.90;;;;;;;15.40;70.17;100351.27;1797927;78;25721;-67
2021/08/05 03:54:41;;;;;;;14.55;9.68;;;;;;;15.40;70.12;100345.86;1771242;79;25844;-67
2021/08/05 03:57:07;;;;;;;15.75;10.65;;;;;;;15.42;70.21;100345.76;1787706;79;25771;-67
2021/08/05 03:59:34;;;;;;;14.90;9.75;;;;;;;15.44;70.29;100343.81;1777035;78;25800;-67
2021/08/05 04:02:00;;;;;;;15.40;10.45;;;;;;;15.48;70.27;100349.39;1760346;79;27647;-67
2021/08/05 04:04:28;;;;;;;18.67;10.10;;;;;;;15.50;70.31;100348.80;1775990;79;25741;-67
2021/08/05 04:06:56;;;;;;;19.92;11.10;;;;;;;15.52;70.32;100342.80;1785685;78;25728;-67
2021/08/05 04:09:22;;;;;;;13.68;10.35;;;;;;;15.54;70.30;100339.52;1801105;77;26316;-67
2021/08/05 04:11:50;;;;;;;20.32;10.72;;;;;;;15.56;70.31;100337.09;1781737;78;26378;-67
2021/08/05 04:14:18;;;;;;;14.40;10.05;;;;;;;15.60;70.40;100339.13;1799262;78;27545;-67
2021/08/05 04:16:45;;;;;;;19.95;11.18;;;;;;;15.63;70.32;100341.59;1788956;78;26522;-67
2021/08/05 04:19:12;;;;;;;15.15;10.32;;;;;;;15.63;70.32;100343.42;1799732;78;25803;-67
2021/08/05 04:21:40;;;;;;;18.62;10.93;;;;;;;15.63;70.36;100336.18;1793145;78;25886;-67
2021/08/05 04:24:06;;;;;;;15.72;11.45;;;;;;;15.67;70.37;100331.43;1797634;78;25804;-67
2021/08/05 04:26:32;;;;;;;19.23;11.22;;;;;;;15.68;70.44;100334.02;1797361;78;28084;-66
2021/08/05 04:28:59;;;;;;;18.25;11.12;;;;;;;15.67;70.37;100337.70;1795601;78;25728;-68
2021/08/05 04:31:26;;;;;;;21.33;11.20;;;;;;;15.67;70.47;100337.70;1786395;78;26519;-67
2021/08/05 04:33:53;;;;;;;18.77;11.03;;;;;;;15.69;70.48;100337.59;1798652;78;25766;-67
2021/08/05 04:36:19;;;;;;;15.65;10.25;;;;;;;15.69;70.47;100338.45;1785829;78;26252;-67
2021/08/05 04:38:46;;;;;;;20.75;10.00;;;;;;;15.71;70.51;100335.16;1782973;78;27450;-67
2021/08/05 04:41:14;;;;;;;14.15;10.43;;;;;;;15.72;70.54;100329.27;1786239;78;25744;-67
2021/08/05 04:43:43;;;;;;;15.32;11.20;;;;;;;15.74;70.57;100330.89;1786638;78;25785;-67
2021/08/05 04:46:10;;;;;;;16.25;10.70;;;;;;;15.78;70.58;100336.47;1797592;78;25710;-67
2021/08/05 04:48:39;;;;;;;13.20;9.43;;;;;;;15.76;70.51;100333.49;1793710;78;25866;-67
2021/08/05 04:51:06;;;;;;;14.43;10.72;;;;;;;15.77;70.54;100322.58;1746608;80;27460;-68
2021/08/05 04:53:32;;;;;;;10.65;9.33;;;;;;;15.77;70.62;100321.23;1801034;78;25825;-68
2021/08/05 04:56:01;;;;;;;17.92;11.55;;;;;;;15.80;70.55;100326.41;1814252;76;26531;-68
2021/08/05 04:58:30;;;;;;;19.27;10.05;;;;;;;15.82;70.60;100321.77;1840573;76;25850;-68
2021/08/05 05:00:59;;;;;;;14.35;9.70;;;;;;;15.85;70.58;100326.09;1831158;76;26023;-68
2021/08/05 05:03:25;;;;;;;16.27;10.58;;;;;;;15.86;70.55;100323.77;1843056;76;27422;-68
2021/08/05 05:05:51;;;;;;;14.73;9.63;;;;;;;15.90;70.62;100328.85;1841830;76;25770;-67
2021/08/05 05:08:24;;;;;;;13.70;10.25;;;;;;;15.95;70.60;100323.12;1840808;76;25899;-67
2021/08/05 05:10:53;;;;;;;13.40;9.78;;;;;;;16.01;70.59;100323.17;1827336;76;26347;-68
2021/08/05 05:13:20;;;;;;;23.00;11.22;;;;;;;16.06;70.63;100324.58;1833990;76;25840;-67
2021/08/05 05:15:48;;;;;;;15.53;11.05;;;;;;;16.11;70.62;100329.66;1845406;76;27418;-68
2021/08/05 05:18:19;;;;;;;15.98;9.33;;;;;;;16.20;70.63;100330.35;1841567;76;26479;-68
2021/08/05 05:20:46;;;;;;;15.70;9.95;;;;;;;16.29;70.58;100328.83;1851697;76;25783;-68
2021/08/05 05:23:13;;;;;;;11.85;9.48;;;;;;;16.36;70.53;100336.88;1835318;76;25873;-67
2021/08/05 05:25:45;;;;;;;19.70;8.88;;;;;;;16.38;70.54;100330.38;1833610;76;25778;-67
2021/08/05 05:28:16;;;;;;;15.00;9.03;;;;;;;16.44;70.53;100325.88;1838141;76;27366;-67
2021/08/05 05:30:42;;;;;;;15.90;9.40;;;;;;;16.51;70.48;100323.10;1832960;76;25803;-67
2021/08/05 05:33:08;;;;;;;20.02;10.58;;;;;;;16.59;70.50;100320.33;1842450;76;26228;-67
2021/08/05 05:35:39;;;;;;;19.15;9.03;;;;;;;16.67;70.45;100323.37;1837330;74;25789;-67
2021/08/05 05:38:10;;;;;;;15.68;9.25;;;;;;;16.77;70.41;100329.83;1841998;76;26058;-67
2021/08/05 05:40:39;;;;;;;12.18;8.63;;;;;;;16.86;70.38;100326.44;1838554;76;28098;-67
2021/08/05 05:43:07;;;;;;;12.40;9.45;;;;;;;16.96;70.33;100332.89;1826144;76;25854;-67
2021/08/05 05:45:33;;;;;;;14.78;8.65;;;;;;;17.03;70.23;100327.40;1840314;76;26020;-67
2021/08/05 05:48:03;;;;;;;12.00;8.38;;;;;;;17.09;70.19;100328.29;1836028;76;26497;-67
2021/08/05 05:50:31;;;;;;;13.72;9.43;;;;;;;17.18;70.14;100329.44;1840403;76;25827;-67
2021/08/05 05:52:58;;;;;;;17.45;9.00;;;;;;;17.24;70.06;100331.69;1822759;74;27438;-67
2021/08/05 05:55:28;;;;;;;11.83;8.33;;;;;;;17.32;70.04;100325.68;1851932;76;25787;-67
2021/08/05 05:57:57;;;;;;;17.55;8.13;;;;;;;17.40;69.97;100320.54;1823228;76;25793;-67
2021/08/05 06:00:24;;;;;;;14.40;7.37;;;;;;;17.45;69.90;100323.76;1824229;76;25684;-67
2021/08/05 06:02:51;;;;;;;16.82;7.80;;;;;;;17.54;69.86;100323.05;1833635;76;25796;-67
2021/08/05 06:05:19;;;;;;;11.08;7.50;;;;;;;17.62;69.78;100326.52;1834318;76;27965;-67
2021/08/05 06:07:50;;;;;;;13.13;6.70;;;;;;;17.69;69.71;100318.31;1839441;76;25724;-69
2021/08/05 06:10:21;;;;;;;22.67;6.95;;;;;;;17.73;69.60;100316.61;1831880;76;25814;-66
2021/08/05 06:12:50;;;;;;;10.55;5.67;;;;;;;17.83;69.63;100320.32;1842610;74;25708;-67
2021/08/05 06:15:17;;;;;;;11.28;7.05;;;;;;;17.96;69.57;100311.22;1832477;76;25692;-67
2021/08/05 06:17:45;;;;;;;10.70;5.78;;;;;;;18.10;69.50;100315.05;1840415;76;27356;-67
2021/08/05 06:20:16;;;;;;;11.15;6.03;;;;;;;18.23;69.41;100318.48;1828607;76;26131;-68
2021/08/05 06:22:42;;;;;;;9.70;5.40;;;;;;;18.39;69.34;100313.54;1825760;76;25879;-67
2021/08/05 06:25:11;;;;;;;29.52;5.85;;;;;;;18.53;69.21;100313.77;1828458;76;26599;-67
2021/08/05 06:27:39;;;;;;;17.40;5.78;;;;;;;18.68;69.07;100309.84;1823843;76;26393;-68
2021/08/05 06:30:09;;;;;;;10.40;5.35;;;;;;;18.84;68.96;100311.28;1840026;75;27440;-67
2021/08/05 06:32:38;;;;;;;12.13;5.90;;;;;;;18.98;68.81;100305.07;1805906;77;25815;-68
2021/08/05 06:35:06;;;;;;;11.25;5.65;;;;;;;19.12;68.66;100304.78;1821086;76;25794;-67
2021/08/05 06:37:35;;;;;;;6.25;5.20;;;;;;;19.29;68.54;100298.41;1827165;76;26083;-67
2021/08/05 06:40:06;;;;;;;18.48;6.05;;;;;;;19.44;68.34;100298.45;1839856;76;25777;-67
2021/08/05 06:42:34;;;;;;;9.95;5.67;;;;;;;19.59;68.17;100301.25;1826687;76;27533;-66
2021/08/05 06:45:00;;;;;;;8.63;5.20;;;;;;;19.71;67.90;100293.39;1777639;78;26365;-66
2021/08/05 06:47:26;;;;;;;7.17;4.90;;;;;;;19.81;67.68;100300.25;1753585;80;26385;-66
2021/08/05 06:49:53;;;;;;;6.97;5.70;;;;;;;19.95;67.50;100295.83;1787238;78;25845;-67
2021/08/05 06:52:22;;;;;;;10.95;5.40;;;;;;;20.05;67.24;100295.38;1820253;76;25264;-67
2021/08/05 06:54:50;;;;;;;13.80;6.15;;;;;;;20.16;67.01;100289.48;1838207;76;27548;-66
2021/08/05 06:57:18;;;;;;;12.90;6.58;;;;;;;20.22;66.78;100291.66;1835641;76;25728;-66
2021/08/05 06:59:43;;;;;;;7.85;6.20;;;;;;;20.25;66.49;100284.08;1790999;78;26487;-66
2021/08/05 07:02:09;;;;;;;7.85;5.85;;;;;;;20.27;66.32;100285.31;1824022;76;26452;-66
2021/08/05 07:04:35;;;;;;;11.78;5.37;;;;;;;20.26;66.06;100288.53;1789628;78;25791;-66
2021/08/05 07:07:04;;;;;;;5.75;4.87;;;;;;;20.26;65.95;100270.84;1832996;76;28325;-66
2021/08/05 07:09:30;;;;;;;8.05;5.72;;;;;;;20.36;65.73;100287.20;1836553;76;25959;-66
2021/08/05 07:11:56;;;;;;;9.85;6.60;;;;;;;20.41;65.48;100280.38;1838640;76;25756;-66
2021/08/05 07:14:21;;;;;;;8.90;6.15;;;;;;;20.48;65.32;100281.19;1792350;78;25788;-67
2021/08/05 07:16:52;;;;;;;7.90;5.58;;;;;;;20.53;64.97;100277.55;1834858;76;25805;-66
2021/08/05 07:19:19;;;;;;;13.30;5.33;;;;;;;20.51;64.82;100281.77;1828227;76;29431;-68
2021/08/05 07:21:47;;;;;;;8.95;5.45;;;;;;;20.53;64.68;100273.47;1850157;76;26526;-67
2021/08/05 07:24:14;;;;;;;8.55;5.28;;;;;;;20.60;64.56;100271.91;1831046;76;25863;-67
2021/08/05 07:26:42;;;;;;;6.72;5.05;;;;;;;20.69;64.35;100279.24;1782078;78;25792;-68
2021/08/05 07:29:10;;;;;;;8.68;5.20;;;;;;;20.73;64.03;100276.59;1831651;76;25895;-68
2021/08/05 07:31:36;;;;;;;10.93;4.30;;;;;;;20.79;63.83;100270.59;1825048;76;27414;-67
2021/08/05 07:34:04;;;;;;;9.28;4.17;;;;;;;20.88;63.68;100272.43;1787478;78;25536;-67
2021/08/05 07:36:29;;;;;;;7.10;4.75;;;;;;;20.95;63.48;100273.59;1757032;80;25790;-68
2021/08/05 07:38:58;;;;;;;6.58;4.03;;;;;;;20.92;62.98;100258.89;1790056;78;26333;-67
2021/08/05 07:41:24;;;;;;;5.17;4.37;;;;;;;20.93;62.78;100268.78;1826463;76;25721;-67
2021/08/05 07:43:50;;;;;;;4.20;3.45;;;;;;;21.02;62.61;100276.61;1815867;76;27434;-68
2021/08/05 07:46:16;;;;;;;9.45;3.37;;;;;;;21.06;62.24;100279.41;1817095;76;25758;-67
2021/08/05 07:48:43;;;;;;;9.80;3.45;;;;;;;21.08;62.00;100276.03;1808732;76;25741;-67
2021/08/05 07:51:10;;;;;;;6.12;4.72;;;;;;;21.18;61.89;100278.77;1817912;76;25820;-68
2021/08/05 07:53:36;;;;;;;8.25;4.83;;;;;;;21.30;61.69;100273.56;1835052;76;25782;-67
2021/08/05 07:56:03;;;;;;;10.85;4.58;;;;;;;21.42;61.51;100269.67;1830340;76;27317;-68
2021/08/05 07:58:29;;;;;;;11.05;3.92;;;;;;;21.56;61.39;100268.38;1833056;76;25751;-68
2021/08/05 08:00:54;;;;;;;11.18;2.87;;;;;;;21.71;61.14;100260.09;1833211;76;25782;-68
2021/08/05 08:03:21;;;;;;;7.45;3.20;;;;;;;21.94;60.00;100254.64;1798969;76;26433;-68
2021/08/05 08:05:50;;;;;;;4.03;3.05;;;;;;;21.94;60.00;100254.64;1813536;76;25887;-68
2021/08/05 08:08:16;;;;;;;5.08;3.27;;;;;;;22.07;59.95;100254.34;1843203;76;27550;-68
2021/08/05 08:10:43;;;;;;;6.42;3.83;;;;;;;22.15;59.67;100260.41;1822680;76;25754;-68
2021/08/05 08:13:10;;;;;;;4.83;3.47;;;;;;;22.21;59.35;100262.55;1828212;76;25738;-68
2021/08/05 08:15:36;;;;;;;8.83;4.05;;;;;;;22.26;59.20;100262.95;1820825;76;26423;-68
2021/08/05 08:18:02;;;;;;;4.92;4.28;;;;;;;22.39;59.06;100250.31;1828907;76;25743;-69
2021/08/05 08:20:31;;;;;;;7.05;4.85;;;;;;;22.44;58.60;100257.55;1832143;76;27374;-68
2021/08/05 08:22:57;;;;;;;9.28;4.00;;;;;;;22.41;58.38;100254.61;1828537;76;25788;-68
2021/08/05 08:25:24;;;;;;;14.75;4.53;;;;;;;22.38;58.18;100252.19;1829707;76;25748;-68
2021/08/05 08:27:52;;;;;;;4.20;3.90;;;;;;;22.38;58.10;100256.78;1832907;76;25841;-68
2021/08/05 08:30:19;;;;;;;4.17;3.77;;;;;;;22.44;57.92;100260.28;1834804;76;25709;-68
2021/08/05 08:32:47;;;;;;;6.47;3.95;;;;;;;22.49;57.75;100249.75;1828097;76;27382;-68
2021/08/05 08:35:17;;;;;;;5.20;4.40;;;;;;;22.58;57.62;100251.57;1792395;78;25758;-68
2021/08/05 08:37:44;;;;;;;6.97;4.97;;;;;;;22.64;57.38;100249.59;1833573;76;25746;-69
2021/08/05 08:40:15;;;;;;;9.00;4.80;;;;;;;22.67;57.00;100245.19;1789073;78;25757;-68
2021/08/05 08:42:44;;;;;;;7.95;5.20;;;;;;;22.59;56.70;100251.92;1775901;79;25808;-68
2021/08/05 08:45:15;;;;;;;12.78;5.60;;;;;;;22.50;56.71;100246.02;1824922;76;27368;-69
2021/08/05 08:47:54;;;;;;;10.78;4.78;;;;;;;22.44;56.57;100245.25;1835177;76;25703;-68
2021/08/05 08:50:28;;;;;;;6.62;5.60;;;;;;;22.35;56.51;100245.66;1835683;76;25723;-68
2021/08/05 08:53:10;;;;;;;12.90;6.15;;;;;;;22.37;56.48;100239.55;1827163;76;25760;-68
2021/08/05 08:55:42;;;;;;;9.40;5.25;;;;;;;22.41;56.53;100244.20;1837153;76;25683;-67
2021/08/05 08:58:10;;;;;;;7.12;5.65;;;;;;;22.42;56.44;100244.55;1829082;76;27731;-67
2021/08/05 09:00:37;;;;;;;6.42;5.47;;;;;;;22.40;56.30;100234.28;1824159;76;25756;-67
2021/08/05 09:03:06;;;;;;;10.80;5.05;;;;;;;22.38;56.36;100237.67;1833237;76;25687;-67
2021/08/05 09:05:32;;;;;;;8.50;5.25;;;;;;;22.35;56.31;100235.59;1819952;76;26481;-68
2021/08/05 09:08:02;;;;;;;6.20;5.28;;;;;;;22.38;56.36;100228.11;1830962;76;26649;-68
2021/08/05 09:10:32;;;;;;;17.15;5.45;;;;;;;22.53;56.37;100233.41;1833713;76;27533;-67
2021/08/05 09:13:00;;;;;;;24.23;6.00;;;;;;;22.53;56.22;100225.22;1836791;76;26194;-70
2021/08/05 09:15:43;;;;;;;31.37;6.78;;;;;;;22.60;56.34;100221.72;1819402;76;25829;-68
2021/08/05 09:18:35;;;;;;;22.52;6.10;;;;;;;22.73;56.10;100230.05;1831586;76;26254;-68
2021/08/05 09:21:21;;;;;;;10.13;4.90;;;;;;;22.74;55.98;100224.94;1836450;76;25779;-68
2021/08/05 09:24:04;;;;;;;19.07;5.80;;;;;;;22.88;56.06;100228.53;1817061;76;27304;-68
2021/08/05 09:26:50;;;;;;;22.67;5.50;;;;;;;23.03;55.94;100226.12;1831699;76;25743;-69
2021/08/05 09:29:23;;;;;;;6.15;4.22;;;;;;;23.08;55.80;100221.89;1805608;76;26439;-69
2021/08/05 09:31:58;;;;;;;15.38;4.42;;;;;;;23.11;55.38;100220.72;1830876;76;25730;-70
2021/08/05 09:34:36;;;;;;;11.18;5.00;;;;;;;23.09;55.55;100224.13;1833655;76;25712;-69
2021/08/05 09:37:11;;;;;;;13.62;4.50;;;;;;;23.12;55.38;100220.56;1739060;78;27783;-68
2021/08/05 09:39:47;;;;;;;10.63;3.70;;;;;;;23.10;55.20;100221.73;1765094;79;25844;-70
2021/08/05 09:42:16;;;;;;;4.58;3.12;;;;;;;23.08;54.78;100222.41;1769335;77;25684;-68
2021/08/05 09:44:47;;;;;;;9.60;4.70;;;;;;;23.07;54.84;100217.95;1770244;77;25802;-68
2021/08/05 09:47:19;;;;;;;4.00;3.25;;;;;;;23.10;54.59;100217.64;1765006;79;25777;-68
2021/08/05 09:49:56;;;;;;;7.65;3.90;;;;;;;23.18;54.56;100212.23;1770365;79;28078;-67
2021/08/05 09:52:31;;;;;;;4.22;3.40;;;;;;;23.27;54.43;100216.77;1774933;79;25838;-69
2021/08/05 09:55:00;;;;;;;7.47;3.75;;;;;;;23.26;54.17;100211.80;1774157;79;26027;-68
2021/08/05 09:57:39;;;;;;;9.70;3.25;;;;;;;23.26;53.87;100215.05;1759066;79;25784;-70
2021/08/05 10:00:16;;;;;;;7.47;2.90;;;;;;;23.28;53.89;100208.91;1770698;79;25959;-70
2021/08/05 10:02:50;;;;;;;6.53;3.20;;;;;;;23.38;53.80;100204.71;1774189;79;28138;-67
2021/08/05 10:05:23;;;;;;;9.73;3.15;;;;;;;23.48;53.61;100214.50;1786084;78;25707;-69
2021/08/05 10:07:54;;;;;;;4.53;2.55;;;;;;;23.48;53.34;100202.20;1766218;79;25743;-69
2021/08/05 10:10:27;;;;;;;5.95;2.62;;;;;;;23.51;53.20;100200.50;1769700;79;25857;-69
2021/08/05 10:13:00;;;;;;;;;;;;;;;23.56;52.97;100196.81;1781175;79;25830;-68
2021/08/05 10:15:29;;;;;;;8.35;3.65;;;;;;;23.46;52.59;100195.17;1792572;78;27373;-70
2021/08/05 10:18:00;;;;;;;11.12;3.47;;;;;;;23.46;52.65;100197.90;1798310;78;26506;-71
2021/08/05 10:20:28;;;;;;;7.20;2.45;;;;;;;23.50;52.44;100196.05;1792961;78;25673;-69
2021/08/05 10:22:59;;;;;;;8.53;2.33;;;;;;;23.46;52.45;100193.29;1792557;78;26309;-69
2021/08/05 10:25:27;;;;;;;2.98;2.35;;;;;;;23.51;52.17;100194.17;1799497;78;26319;-70
2021/08/05 10:27:57;;;;;;;3.52;3.20;;;;;;;23.60;52.28;100194.10;1791203;78;27942;-72
2021/08/05 10:30:24;;;;;;;7.28;2.90;;;;;;;23.75;52.21;100186.66;1800228;78;26537;-72
2021/08/05 10:32:53;;;;;;;5.28;2.65;;;;;;;23.88;52.02;100182.98;1781887;78;26378;-72
2021/08/05 10:35:22;;;;;;;12.75;2.98;;;;;;;23.83;51.85;100176.63;1792249;78;25748;-72
2021/08/05 10:37:51;;;;;;;5.70;2.72;;;;;;;23.86;51.83;100181.77;1792835;78;26159;-71
2021/08/05 10:40:18;;;;;;;3.98;2.77;;;;;;;23.87;51.68;100175.78;1799313;78;27309;-71
2021/08/05 10:42:46;;;;;;;5.25;2.40;;;;;;;23.88;51.65;100172.03;1790621;78;25865;-72
2021/08/05 10:45:15;;;;;;;3.90;2.90;;;;;;;23.85;51.50;100166.88;1759152;79;25733;-70
2021/08/05 10:47:48;;;;;;;9.95;3.33;;;;;;;23.79;51.27;100156.59;1769454;79;26161;-73
2021/08/05 10:50:17;;;;;;;7.22;2.67;;;;;;;23.75;51.29;100159.30;1760854;79;25713;-72
2021/08/05 10:52:51;;;;;;;3.70;2.27;;;;;;;23.78;50.86;100161.70;1769014;79;27405;-72
2021/08/05 10:55:22;;;;;;;3.08;2.75;;;;;;;23.54;50.84;100156.95;1752369;79;25922;-72
2021/08/05 10:58:20;;;;;;;6.85;2.80;;;;;;;23.57;51.05;100154.75;1769143;79;26611;-70
2021/08/05 11:00:55;;;;;;;8.03;3.00;;;;;;;23.66;51.00;100154.29;1769476;79;25839;-70
2021/08/05 11:03:36;;;;;;;5.28;2.80;;;;;;;23.72;50.92;100144.58;1740165;79;25794;-70
2021/08/05 11:06:05;;;;;;;7.65;2.90;;;;;;;23.71;50.74;100139.61;1755525;79;28911;-71
2021/08/05 11:08:35;;;;;;;7.47;3.02;;;;;;;23.72;50.84;100137.73;1749259;79;25793;-71
2021/08/05 11:11:24;;;;;;;8.15;3.45;;;;;;;23.80;50.42;100138.63;1759676;79;25716;-71
2021/08/05 11:14:05;;;;;;;3.60;3.30;;;;;;;23.69;50.31;100137.55;1758996;79;26621;-71
2021/08/05 11:17:00;;;;;;;6.87;3.75;;;;;;;23.64;50.40;100125.72;1740206;79;26275;-71
2021/08/05 11:19:34;;;;;;;13.00;4.20;;;;;;;23.93;50.66;100128.59;1750026;79;28242;-72
2021/08/05 11:22:34;;;;;;;4.40;4.00;;;;;;;24.27;50.64;100123.09;1738308;79;26452;-72
2021/08/05 11:25:00;;;;;;;7.40;4.30;;;;;;;24.46;50.18;100125.54;1753073;79;25878;-73
2021/08/05 11:27:26;;;;;;;7.53;4.33;;;;;;;24.53;50.13;100126.58;1752361;79;26326;-70
2021/08/05 11:29:52;;;;;;;4.08;3.47;;;;;;;24.69;50.02;100127.63;1707143;81;25838;-73
2021/08/05 11:32:26;;;;;;;13.62;4.03;;;;;;;24.83;49.79;100125.58;1719925;81;27466;-72